Time;durP1;ratioP1;P1;durP2;ratioP2;P2;SDS_P1;SDS_P2;PMS_P1;PMS_P2;Temp;Humidity;BMP_temperature;BMP_pressure;BME280_temperature;BME280_humidity;BME280_pressure;Samples;Min_cycle;Max_cycle;Signal;HPM_P1;HPM_P2
2021/07/27 00:02:04;;;;;;;24.23;13.77;;;;;;;22.50;60.35;100812.03;126318;1099;104255;-78
2021/07/27 00:04:34;;;;;;;25.30;13.55;;;;;;;22.51;61.08;100808.44;126296;1099;104146;-77
2021/07/27 00:07:08;;;;;;;26.53;14.20;;;;;;;22.50;60.73;100801.33;126350;1099;104143;-78
2021/07/27 00:09:39;;;;;;;23.63;12.60;;;;;;;22.43;60.65;100807.62;126253;1099;104188;-77
2021/07/27 00:12:09;;;;;;;23.50;12.00;;;;;;;22.38;60.59;100804.98;125640;1099;104162;-78
2021/07/27 00:14:42;;;;;;;23.27;12.60;;;;;;;22.40;61.27;100795.16;126309;1099;104243;-78
2021/07/27 00:17:13;;;;;;;26.23;14.18;;;;;;;22.43;61.30;100799.59;126290;1099;104219;-78
2021/07/27 00:19:43;;;;;;;24.97;13.23;;;;;;;22.44;61.67;100796.03;126303;1098;104569;-78
2021/07/27 00:22:14;;;;;;;22.87;13.00;;;;;;;22.49;60.99;100796.00;126299;1099;104173;-77
2021/07/27 00:24:45;;;;;;;27.37;13.80;;;;;;;22.46;60.82;100791.55;126323;1099;104297;-77
2021/07/27 00:27:15;;;;;;;31.20;14.47;;;;;;;22.37;61.17;100792.50;126343;1099;104165;-77
2021/07/27 00:29:46;;;;;;;27.00;13.67;;;;;;;22.35;61.33;100794.31;126256;1099;104219;-77
2021/07/27 00:32:17;;;;;;;27.67;13.00;;;;;;;22.36;61.83;100793.42;125298;1099;104235;-76
2021/07/27 00:34:47;;;;;;;22.80;12.83;;;;;;;22.37;61.97;100797.85;126322;1099;104162;-77
2021/07/27 00:37:27;;;;;;;22.27;12.57;;;;;;;22.36;61.87;100796.09;126316;1099;104158;-77
2021/07/27 00:39:59;;;;;;;27.93;13.03;;;;;;;22.34;62.27;100791.66;125231;1099;104145;-77
2021/07/27 00:42:31;;;;;;;22.70;12.47;;;;;;;22.34;61.56;100791.66;126305;1099;104175;-77
2021/07/27 00:45:01;;;;;;;25.37;13.13;;;;;;;22.33;61.43;100787.20;125598;1099;104156;-77
2021/07/27 00:47:32;;;;;;;25.47;13.70;;;;;;;22.29;62.36;100794.33;126291;1099;104172;-77
2021/07/27 00:50:02;;;;;;;25.33;12.80;;;;;;;22.24;61.49;100797.04;126278;1099;104172;-77
2021/07/27 00:52:35;;;;;;;25.67;13.20;;;;;;;22.16;62.35;100796.22;126329;1099;104155;-77
2021/07/27 00:55:07;;;;;;;23.47;12.47;;;;;;;22.14;62.32;100795.32;126297;1099;104309;-76
2021/07/27 00:57:39;;;;;;;23.83;13.27;;;;;;;22.14;62.65;100795.32;126331;1099;104296;-77
2021/07/27 01:00:11;;;;;;;24.70;12.07;;;;;;;22.14;62.36;100787.30;126244;1099;104205;-77
2021/07/27 01:02:43;;;;;;;27.47;13.13;;;;;;;22.12;61.82;100785.56;125575;1099;104208;-78
2021/07/27 01:05:16;;;;;;;22.47;12.40;;;;;;;22.10;62.35;100782.90;126303;1099;104782;-77
2021/07/27 01:07:47;;;;;;;25.47;13.17;;;;;;;22.08;62.06;100790.92;126285;1099;104181;-77
2021/07/27 01:10:18;;;;;;;26.50;14.47;;;;;;;22.03;62.74;100791.84;125327;1099;101817;-76
2021/07/27 01:12:49;;;;;;;30.10;14.03;;;;;;;21.95;62.42;100786.55;126309;1099;104153;-77
2021/07/27 01:15:20;;;;;;;23.53;12.83;;;;;;;21.87;62.41;100785.73;126336;1099;104214;-76
2021/07/27 01:17:59;;;;;;;26.17;12.93;;;;;;;21.80;62.97;100783.98;126376;1099;104229;-76
2021/07/27 01:20:38;;;;;;;24.87;12.40;;;;;;;21.80;62.46;100790.23;126236;1098;104159;-76
2021/07/27 01:39:32;;;;;;;21.70;12.57;;;;;;;21.58;62.34;100804.58;126311;1099;104139;-77
2021/07/27 01:42:08;;;;;;;23.10;12.63;;;;;;;21.47;62.64;100796.58;126309;1099;105604;-77
2021/07/27 01:44:45;;;;;;;27.97;13.70;;;;;;;21.39;62.99;100796.61;125354;1099;104352;-77
2021/07/27 01:47:17;;;;;;;23.30;12.80;;;;;;;21.34;62.55;100793.08;126320;1099;104204;-77
2021/07/27 01:49:49;;;;;;;25.30;12.70;;;;;;;21.31;63.23;100801.10;126331;1099;104144;-78
2021/07/27 01:52:23;;;;;;;25.13;12.47;;;;;;;21.30;62.96;100799.31;125389;1099;104220;-77
2021/07/27 01:54:57;;;;;;;24.93;12.63;;;;;;;21.26;63.65;100795.78;126369;1099;104182;-77
2021/07/27 01:57:31;;;;;;;23.73;12.50;;;;;;;21.18;63.47;100798.47;126333;1099;104245;-77
2021/07/27 02:00:12;;;;;;;26.07;13.53;;;;;;;21.14;64.19;100794.03;126285;1099;104197;-77
2021/07/27 02:02:43;;;;;;;25.20;13.77;;;;;;;21.10;63.62;100794.95;126251;1099;104261;-77
2021/07/27 02:05:15;;;;;;;28.40;14.00;;;;;;;21.12;64.50;100806.50;125331;1099;104283;-77
2021/07/27 02:07:53;;;;;;;24.93;13.70;;;;;;;21.08;63.60;100814.52;126386;1099;104149;-77
2021/07/27 02:10:24;;;;;;;25.70;13.33;;;;;;;21.00;63.44;100814.53;126337;1099;104181;-77
2021/07/27 02:13:01;;;;;;;22.20;12.40;;;;;;;20.94;64.21;100806.54;125131;1098;107839;-77
2021/07/27 02:15:40;;;;;;;26.40;13.37;;;;;;;20.85;64.72;100806.56;126319;1099;104179;-78
2021/07/27 02:18:11;;;;;;;23.47;12.50;;;;;;;20.76;65.14;100803.02;125363;1099;104142;-77
2021/07/27 02:20:42;;;;;;;28.87;13.87;;;;;;;20.69;65.11;100806.58;125400;1099;104150;-78
2021/07/27 02:23:13;;;;;;;25.00;14.23;;;;;;;20.63;65.51;100806.55;125367;1099;119864;-77
2021/07/27 02:25:44;;;;;;;25.27;12.80;;;;;;;20.57;65.21;100803.88;126306;1099;104175;-77
2021/07/27 02:28:17;;;;;;;23.83;12.30;;;;;;;20.61;65.16;100811.88;126322;1099;104288;-79
2021/07/27 02:30:50;;;;;;;24.10;12.60;;;;;;;20.64;65.95;100809.24;125381;1099;104176;-78
2021/07/27 02:33:23;;;;;;;25.43;13.63;;;;;;;20.68;66.17;100803.91;125475;1099;104182;-77
2021/07/27 02:35:53;;;;;;;26.23;12.73;;;;;;;20.78;66.09;100801.23;126301;1099;104141;-77
2021/07/27 02:38:24;;;;;;;28.23;13.43;;;;;;;20.81;65.45;100809.23;125307;1099;104320;-76
2021/07/27 02:40:55;;;;;;;24.53;12.80;;;;;;;20.75;66.15;100801.23;126338;1099;104675;-76
2021/07/27 02:43:25;;;;;;;24.07;13.23;;;;;;;20.70;65.99;100804.82;125298;1099;104203;-77
2021/07/27 02:45:56;;;;;;;23.73;13.80;;;;;;;20.61;65.55;100814.55;126296;1099;104190;-77
2021/07/27 02:48:26;;;;;;;25.07;13.10;;;;;;;20.55;66.18;100811.00;126332;1099;104207;-77
2021/07/27 02:51:07;;;;;;;26.93;12.93;;;;;;;20.52;66.03;100811.00;126298;1099;104211;-77
2021/07/27 02:53:39;;;;;;;29.90;13.17;;;;;;;20.49;66.67;100809.25;125376;1099;104258;-77
2021/07/27 02:56:10;;;;;;;24.80;12.47;;;;;;;20.51;66.19;100806.58;126326;1099;104245;-77
2021/07/27 02:58:40;;;;;;;25.30;13.57;;;;;;;20.52;66.25;100811.00;125353;1099;104181;-78
2021/07/27 03:01:11;;;;;;;24.70;12.87;;;;;;;20.52;66.98;100816.33;126349;1099;104195;-77
2021/07/27 03:03:42;;;;;;;23.93;13.13;;;;;;;20.51;66.92;100804.80;126241;1099;104249;-77
2021/07/27 03:06:16;;;;;;;23.67;13.20;;;;;;;20.50;66.30;100807.46;126299;1099;104182;-77
2021/07/27 03:09:02;;;;;;;22.77;13.63;;;;;;;20.58;66.83;100809.22;126323;1099;104147;-77
2021/07/27 03:11:32;;;;;;;26.37;12.67;;;;;;;20.61;66.18;100813.67;126324;1098;104291;-77
2021/07/27 03:14:03;;;;;;;27.13;13.37;;;;;;;20.64;66.37;100813.66;126246;1099;104146;-77
2021/07/27 03:16:34;;;;;;;25.43;12.73;;;;;;;20.73;67.15;100807.48;125358;1099;104229;-77
2021/07/27 03:19:05;;;;;;;26.63;12.33;;;;;;;20.81;66.93;100803.89;125212;1103;104184;-77
2021/07/27 03:21:36;;;;;;;24.17;12.73;;;;;;;20.89;67.13;100792.33;126309;1099;104249;-77
2021/07/27 03:24:07;;;;;;;24.17;12.27;;;;;;;20.95;67.46;100797.66;125432;1099;104223;-78
2021/07/27 03:26:37;;;;;;;24.93;12.73;;;;;;;20.93;67.19;100802.12;126332;1099;104194;-78
2021/07/27 03:29:09;;;;;;;24.47;13.80;;;;;;;20.90;67.16;100796.79;126322;1099;104312;-78
2021/07/27 03:31:39;;;;;;;24.33;14.10;;;;;;;20.94;66.60;100806.54;126304;1099;104261;-78
2021/07/27 03:34:10;;;;;;;25.90;13.23;;;;;;;21.03;66.47;100800.31;126260;1099;104143;-78
2021/07/27 03:36:41;;;;;;;29.20;13.90;;;;;;;21.08;66.54;100795.84;126336;1099;104291;-77
2021/07/27 03:39:12;;;;;;;25.93;12.73;;;;;;;21.15;67.37;100798.48;125411;1099;104178;-78
2021/07/27 03:41:43;;;;;;;26.23;13.13;;;;;;;21.21;67.08;100791.34;126322;1099;104204;-77
2021/07/27 03:44:15;;;;;;;22.73;12.27;;;;;;;21.22;67.26;100790.46;125356;1099;104386;-78
2021/07/27 03:46:55;;;;;;;27.77;12.93;;;;;;;21.25;67.04;100798.45;125686;1099;104226;-77
2021/07/27 03:49:29;;;;;;;27.47;12.90;;;;;;;21.31;67.45;100793.09;125398;1099;104219;-78
2021/07/27 03:52:02;;;;;;;26.40;13.07;;;;;;;21.39;67.37;100801.08;126285;1099;104158;-77
2021/07/27 03:54:35;;;;;;;26.80;13.48;;;;;;;21.46;67.00;100802.84;126261;1099;104252;-79
2021/07/27 03:57:06;;;;;;;24.63;13.43;;;;;;;21.54;67.07;100798.38;126305;1099;104156;-78
2021/07/27 03:59:37;;;;;;;30.25;14.05;;;;;;;21.62;66.30;100801.01;126322;1099;104238;-77
2021/07/27 04:02:11;;;;;;;30.13;13.60;;;;;;;21.66;66.94;100808.09;126309;1099;104149;-76
2021/07/27 04:04:42;;;;;;;23.73;12.60;;;;;;;21.66;65.89;100802.75;126253;1099;104379;-77
2021/07/27 04:07:12;;;;;;;24.50;13.67;;;;;;;21.65;66.02;100792.98;125623;1099;104320;-78
2021/07/27 04:09:43;;;;;;;27.47;13.80;;;;;;;21.71;67.15;100798.30;126325;1099;104152;-76
2021/07/27 04:15:05;;;;;;;29.47;13.23;;;;;;;21.79;66.45;100787.56;125408;1102;104137;-77
2021/07/27 04:17:35;;;;;;;25.10;13.10;;;;;;;21.83;66.48;100786.63;126340;1099;104271;-76
2021/07/27 04:20:10;;;;;;;27.22;12.85;;;;;;;21.85;66.23;100792.87;126093;1099;104336;-77
2021/07/27 04:22:41;;;;;;;23.80;13.77;;;;;;;21.84;66.02;100791.97;126091;1099;104153;-77
2021/07/27 04:25:12;;;;;;;30.50;14.73;;;;;;;21.86;66.03;100787.52;126212;1099;105298;-78
2021/07/27 04:27:43;;;;;;;29.20;13.87;;;;;;;21.95;66.50;100797.23;125623;1099;104165;-78
2021/07/27 04:30:14;;;;;;;29.80;14.03;;;;;;;22.04;66.34;100791.84;126277;1099;104195;-78
2021/07/27 04:32:44;;;;;;;27.47;13.83;;;;;;;22.16;66.16;100790.88;125549;1099;104147;-78
2021/07/27 04:35:15;;;;;;;26.47;13.40;;;;;;;22.21;66.24;100791.72;126273;1099;104249;-78
2021/07/27 04:37:46;;;;;;;24.13;13.70;;;;;;;22.27;66.78;100793.47;126279;1099;104219;-78
2021/07/27 04:40:17;;;;;;;26.53;14.53;;;;;;;22.32;66.54;100796.14;126336;1099;104185;-78
2021/07/27 04:42:48;;;;;;;25.80;13.80;;;;;;;22.35;66.55;100796.98;126262;1099;104242;-79
2021/07/27 04:45:19;;;;;;;30.13;14.47;;;;;;;22.37;66.66;100796.97;125696;1099;104415;-77
2021/07/27 04:47:50;;;;;;;24.50;14.63;;;;;;;22.39;66.50;100798.75;126292;1099;104184;-79
2021/07/27 04:50:21;;;;;;;27.13;15.90;;;;;;;22.41;66.74;100790.72;125240;1099;104240;-79
2021/07/27 04:52:58;;;;;;;27.07;14.53;;;;;;;22.41;66.51;100788.04;126310;1099;104120;-79
2021/07/27 04:55:30;;;;;;;27.17;13.93;;;;;;;22.42;66.33;100795.14;125335;1099;105406;-78
2021/07/27 04:58:00;;;;;;;27.50;14.23;;;;;;;22.47;66.36;100789.75;125509;1099;104153;-78
2021/07/27 05:00:31;;;;;;;24.20;13.63;;;;;;;22.49;66.60;100791.52;126230;1099;104166;-78
2021/07/27 05:03:02;;;;;;;26.70;14.20;;;;;;;22.55;65.90;100782.58;125450;1099;104997;-79
2021/07/27 05:05:33;;;;;;;30.83;14.00;;;;;;;22.58;66.27;100783.42;125350;1099;104251;-79
2021/07/27 05:08:09;;;;;;;27.03;14.67;;;;;;;22.64;65.78;100789.61;126265;1099;104159;-78
2021/07/27 05:10:53;;;;;;;31.93;15.30;;;;;;;22.71;65.67;100797.55;124955;1105;104331;-79
2021/07/27 05:13:27;;;;;;;31.33;15.70;;;;;;;22.77;66.48;100792.14;125210;1102;104296;-78
2021/07/27 05:16:01;;;;;;;26.03;14.87;;;;;;;22.86;66.42;100790.27;124892;1102;104226;-78
2021/07/27 05:18:32;;;;;;;33.07;15.33;;;;;;;22.96;66.31;100792.83;125005;1102;104181;-79
2021/07/27 05:21:03;;;;;;;29.63;14.50;;;;;;;23.06;66.00;100795.41;125195;1102;104233;-78
2021/07/27 05:23:33;;;;;;;35.90;16.10;;;;;;;23.13;66.00;100799.84;124963;1102;104523;-77
2021/07/27 05:26:06;;;;;;;31.77;15.00;;;;;;;23.25;66.09;100794.34;125156;1102;104217;-79
2021/07/27 05:28:37;;;;;;;29.77;16.30;;;;;;;23.32;65.83;100796.02;125412;1102;104261;-79
2021/07/27 05:31:11;;;;;;;28.57;15.47;;;;;;;23.39;65.79;100799.53;126099;1098;104251;-81
2021/07/27 05:33:42;;;;;;;26.83;15.13;;;;;;;23.46;65.38;100798.52;126177;1099;104766;-79
2021/07/27 05:36:22;;;;;;;28.97;16.43;;;;;;;23.53;65.12;100801.12;125201;1099;104307;-80
2021/07/27 05:38:54;;;;;;;36.27;16.80;;;;;;;23.53;65.01;100804.71;126166;1099;104284;-77
2021/07/27 05:41:26;;;;;;;29.47;16.00;;;;;;;23.59;65.27;100801.95;125177;1099;104281;-79
2021/07/27 05:43:58;;;;;;;34.77;15.33;;;;;;;23.67;65.17;100807.21;126144;1099;104149;-78
2021/07/27 05:46:33;;;;;;;35.40;15.83;;;;;;;23.74;65.21;100816.04;125241;1099;104142;-81
2021/07/27 05:49:14;;;;;;;35.30;15.93;;;;;;;23.80;64.96;100813.27;125261;1099;104245;-77
2021/07/27 05:51:46;;;;;;;33.43;16.17;;;;;;;23.88;64.89;100810.52;126094;1099;104028;-78
2021/07/27 05:54:20;;;;;;;34.05;16.85;;;;;;;23.94;64.82;100810.44;126110;1099;104252;-77
2021/07/27 05:56:51;;;;;;;;;;;;;;;24.00;64.21;100808.54;126142;1099;104242;-78
2021/07/27 05:59:28;;;;;;;37.67;17.03;;;;;;;24.06;64.59;100810.25;126173;1099;104244;-78
2021/07/27 06:02:00;;;;;;;33.67;16.17;;;;;;;24.14;64.46;100805.65;126051;1099;104358;-78
2021/07/27 06:04:31;;;;;;;30.50;16.07;;;;;;;24.22;64.20;100808.21;125936;1099;104232;-78
2021/07/27 06:07:04;;;;;;;;;;;;;;;24.30;63.77;100805.41;125227;1099;104204;-78
2021/07/27 06:09:41;;;;;;;30.70;15.97;;;;;;;24.38;63.79;100801.67;126216;1099;104174;-77
2021/07/27 06:12:17;;;;;;;30.03;15.80;;;;;;;24.48;63.83;100807.79;125269;1099;104256;-78
2021/07/27 06:14:54;;;;;;;31.43;16.50;;;;;;;24.61;63.79;100810.30;125233;1099;104268;-77
2021/07/27 06:17:26;;;;;;;28.03;15.70;;;;;;;24.71;63.51;100803.83;125937;1099;104152;-77
2021/07/27 06:20:01;;;;;;;30.53;15.60;;;;;;;24.81;63.71;100808.13;125947;1099;104174;-78
2021/07/27 06:22:34;;;;;;;31.03;15.40;;;;;;;24.91;63.39;100804.34;125335;1099;104229;-80
2021/07/27 06:25:13;;;;;;;30.88;15.88;;;;;;;25.00;63.58;100805.98;125951;1099;104800;-79
2021/07/27 06:27:46;;;;;;;35.93;17.00;;;;;;;25.09;63.17;100799.56;125934;1099;104217;-78
2021/07/27 06:30:23;;;;;;;31.07;16.13;;;;;;;25.18;62.61;100787.73;125294;1099;104156;-80
2021/07/27 06:32:58;;;;;;;34.93;18.07;;;;;;;25.27;62.63;100788.45;126087;1099;104264;-79
2021/07/27 06:35:36;;;;;;;35.93;16.63;;;;;;;25.36;62.50;100781.14;125241;1102;104638;-79
2021/07/27 06:38:10;;;;;;;34.93;17.03;;;;;;;25.46;62.11;100790.75;125208;1102;104287;-79
2021/07/27 06:40:56;;;;;;;39.15;16.80;;;;;;;25.60;61.81;100787.77;125145;1102;104306;-79
2021/07/27 06:43:29;;;;;;;37.85;16.73;;;;;;;25.75;61.56;100794.62;125174;1102;104757;-78
2021/07/27 06:46:01;;;;;;;40.40;18.30;;;;;;;25.88;61.54;100795.22;125172;1102;104207;-82
2021/07/27 06:48:35;;;;;;;40.93;17.70;;;;;;;25.98;61.06;100796.81;125185;1102;104289;-78
2021/07/27 06:51:19;;;;;;;30.27;14.77;;;;;;;26.10;61.09;100791.15;125221;1102;104143;-79
2021/07/27 06:53:59;;;;;;;23.17;9.20;;;;;;;26.23;59.64;100786.34;125078;1102;104302;-80
2021/07/27 06:56:31;;;;;;;17.50;6.97;;;;;;;26.33;58.94;100784.30;125155;1102;104249;-78
2021/07/27 06:59:05;;;;;;;13.00;6.37;;;;;;;26.44;57.40;100794.80;125134;1102;104403;-78
2021/07/27 07:01:40;;;;;;;14.30;6.60;;;;;;;26.56;57.18;100791.79;125204;1102;104204;-79
2021/07/27 07:04:13;;;;;;;13.50;5.90;;;;;;;26.69;56.97;100790.59;125227;1102;105833;-77
2021/07/27 07:06:46;;;;;;;14.83;6.40;;;;;;;26.83;56.08;100787.53;125106;1102;104175;-77
2021/07/27 07:09:19;;;;;;;18.53;6.10;;;;;;;26.95;55.44;100799.75;125123;1102;104316;-79
2021/07/27 07:11:51;;;;;;;13.10;5.70;;;;;;;27.10;54.46;100784.98;125272;1102;104148;-77
2021/07/27 07:14:27;;;;;;;14.60;5.72;;;;;;;27.23;53.62;100780.13;125258;1099;105217;-78
2021/07/27 07:17:03;;;;;;;12.13;5.60;;;;;;;27.37;53.14;100782.45;125207;1099;104252;-79
2021/07/27 07:19:37;;;;;;;13.67;6.03;;;;;;;27.50;53.27;100778.44;125182;1102;104187;-79
2021/07/27 07:22:11;;;;;;;14.93;6.10;;;;;;;27.69;52.67;100778.78;125605;1099;104243;-78
2021/07/27 07:24:44;;;;;;;11.60;5.80;;;;;;;27.88;52.31;100780.91;125546;1099;104156;-77
2021/07/27 07:27:17;;;;;;;14.13;5.97;;;;;;;28.02;51.38;100785.86;125615;1099;104258;-77
2021/07/27 07:29:48;;;;;;;14.25;6.12;;;;;;;28.19;50.54;100783.52;126051;1099;104201;-78
2021/07/27 07:32:20;;;;;;;11.83;6.43;;;;;;;28.42;50.20;100779.14;126172;1099;104319;-79
2021/07/27 07:35:00;;;;;;;13.80;6.53;;;;;;;28.72;49.92;100776.34;125328;1099;104294;-79
2021/07/27 07:37:34;;;;;;;16.27;5.90;;;;;;;29.04;49.29;100767.94;125256;1099;104708;-78
2021/07/27 07:40:05;;;;;;;13.47;6.03;;;;;;;29.35;48.71;100777.64;125248;1099;104267;-78
2021/07/27 07:42:39;;;;;;;16.23;6.63;;;;;;;29.58;48.57;100775.88;126175;1099;104204;-80
2021/07/27 07:45:12;;;;;;;14.10;6.33;;;;;;;29.76;48.13;100783.27;125374;1099;104271;-77
2021/07/27 07:47:47;;;;;;;17.13;6.03;;;;;;;29.94;47.33;100781.66;126076;1099;104168;-77
2021/07/27 07:50:19;;;;;;;13.70;6.10;;;;;;;30.11;46.89;100774.69;126183;1099;104165;-76
2021/07/27 07:53:00;;;;;;;13.50;6.00;;;;;;;30.27;46.80;100783.05;126214;1099;104191;-79
2021/07/27 07:55:35;;;;;;;11.50;5.73;;;;;;;30.43;46.87;100784.20;126184;1099;104159;-78
2021/07/27 07:58:06;;;;;;;20.30;7.30;;;;;;;30.57;45.72;100785.41;126177;1099;104303;-78
2021/07/27 08:00:41;;;;;;;12.68;6.05;;;;;;;30.57;43.17;100774.58;126235;1099;104290;-79
2021/07/27 08:03:13;;;;;;;16.50;5.77;;;;;;;30.60;43.17;100778.03;126269;1099;104165;-78
2021/07/27 08:05:46;;;;;;;19.37;6.65;;;;;;;30.75;43.83;100775.62;125428;1099;104312;-78
2021/07/27 08:08:19;;;;;;;17.87;6.70;;;;;;;30.88;43.36;100781.36;125226;1099;104206;-79
2021/07/27 08:10:53;;;;;;;26.25;7.55;;;;;;;30.96;43.21;100779.18;126285;1099;104155;-79
2021/07/27 08:13:26;;;;;;;19.43;6.60;;;;;;;31.03;43.14;100780.70;126278;1099;104158;-78
2021/07/27 08:15:59;;;;;;;16.60;6.53;;;;;;;31.05;42.54;100786.06;126148;1099;104271;-76
2021/07/27 08:18:31;;;;;;;16.70;6.80;;;;;;;31.06;42.26;100785.98;126153;1099;104150;-79
2021/07/27 08:21:04;;;;;;;;;;;;;;;31.04;42.32;100779.77;126148;1099;104614;-78
2021/07/27 08:23:39;;;;;;;15.27;6.13;;;;;;;31.02;42.08;100781.64;125238;1099;104194;-77
2021/07/27 08:26:17;;;;;;;14.83;6.00;;;;;;;31.04;42.46;100790.61;125270;1099;104238;-78
2021/07/27 08:28:50;;;;;;;18.20;6.00;;;;;;;31.02;41.60;100800.61;126189;1099;104288;-77
2021/07/27 08:31:23;;;;;;;16.07;6.67;;;;;;;31.01;41.50;100801.58;126219;1099;104142;-77
2021/07/27 08:33:58;;;;;;;13.50;5.57;;;;;;;31.00;41.08;100799.81;126184;1098;104194;-78
2021/07/27 08:36:31;;;;;;;12.53;5.70;;;;;;;30.97;40.22;100799.95;125323;1099;104246;-79
2021/07/27 08:39:03;;;;;;;11.97;5.40;;;;;;;31.00;39.87;100806.10;125199;1099;104149;-78
2021/07/27 08:41:38;;;;;;;15.05;5.90;;;;;;;31.08;39.61;100803.05;126258;1099;104182;-77
2021/07/27 08:44:18;;;;;;;14.57;5.23;;;;;;;31.16;39.49;100806.28;126115;1099;104277;-78
2021/07/27 08:46:54;;;;;;;10.60;4.80;;;;;;;31.25;39.11;100793.28;126163;1099;104213;-78
2021/07/27 08:49:29;;;;;;;13.00;5.33;;;;;;;31.40;39.04;100794.38;125891;1099;104197;-77
2021/07/27 08:52:02;;;;;;;14.43;5.83;;;;;;;31.46;37.96;100792.28;125181;1102;104370;-77
2021/07/27 08:54:37;;;;;;;14.07;5.20;;;;;;;31.57;37.88;100793.63;125159;1102;104249;-78
2021/07/27 08:57:14;;;;;;;15.50;5.53;;;;;;;31.64;37.77;100789.67;125108;1102;104289;-77
2021/07/27 08:59:45;;;;;;;13.13;5.03;;;;;;;31.69;37.59;100788.48;125087;1102;104178;-77
2021/07/27 09:02:29;;;;;;;8.47;4.80;;;;;;;31.76;37.19;100794.52;125179;1102;104332;-77
2021/07/27 09:05:16;;;;;;;11.27;5.10;;;;;;;31.84;37.57;100789.59;125214;1101;104204;-79
2021/07/27 09:08:00;;;;;;;10.33;4.60;;;;;;;31.96;36.42;100795.36;125269;1102;104319;-79
2021/07/27 09:10:39;;;;;;;12.40;4.80;;;;;;;31.98;35.48;100791.62;125233;1102;104274;-77
2021/07/27 09:13:17;;;;;;;14.53;4.67;;;;;;;32.02;34.95;100795.05;125160;1102;104168;-77
2021/07/27 09:15:58;;;;;;;10.57;4.60;;;;;;;32.04;35.49;100793.17;125216;1102;104351;-76
2021/07/27 09:18:33;;;;;;;8.87;4.37;;;;;;;32.11;35.27;100793.77;125201;1102;104217;-77
2021/07/27 09:21:06;;;;;;;9.37;4.93;;;;;;;32.14;34.87;100791.77;125102;1102;104150;-77
2021/07/27 09:23:44;;;;;;;9.20;4.75;;;;;;;32.26;34.83;100795.72;125310;1100;104233;-77
2021/07/27 09:26:15;;;;;;;10.97;5.03;;;;;;;32.33;34.89;100793.56;126106;1099;104226;-76
2021/07/27 09:28:48;;;;;;;12.13;4.60;;;;;;;32.39;34.88;100790.53;126087;1099;104626;-77
2021/07/27 09:31:29;;;;;;;10.03;4.70;;;;;;;32.47;34.53;100791.02;125154;1102;104153;-77
2021/07/27 09:34:12;;;;;;;9.43;4.50;;;;;;;32.55;34.47;100796.95;125308;1099;104284;-76
2021/07/27 09:36:42;;;;;;;;;;;;;;;32.65;34.41;100793.79;126323;1099;104143;-77
2021/07/27 09:39:14;;;;;;;8.90;4.20;;;;;;;32.68;33.98;100786.34;126293;1099;104147;-78
2021/07/27 09:41:47;;;;;;;;;;;;;;;32.74;33.37;100794.17;125117;1102;105645;-79
2021/07/27 09:44:25;;;;;;;10.00;4.50;;;;;;;32.84;33.33;100799.13;125131;1102;104162;-79
2021/07/27 09:47:03;;;;;;;13.47;4.90;;;;;;;32.89;33.36;100792.47;125707;1099;104293;-77
2021/07/27 09:49:37;;;;;;;12.03;4.90;;;;;;;32.92;32.78;100791.44;126172;1098;104137;-78
2021/07/27 09:52:13;;;;;;;12.17;4.60;;;;;;;33.01;32.75;100790.08;126219;1099;118377;-77
2021/07/27 09:54:46;;;;;;;11.07;4.30;;;;;;;33.17;32.96;100788.27;126203;1099;104249;-78
2021/07/27 09:57:20;;;;;;;11.57;4.40;;;;;;;33.31;32.72;100784.83;126239;1099;104169;-79
2021/07/27 09:59:53;;;;;;;12.23;5.17;;;;;;;33.49;32.34;100774.78;126184;1098;105298;-79
2021/07/27 10:02:26;;;;;;;10.93;4.70;;;;;;;33.63;32.50;100772.16;125914;1099;104140;-79
2021/07/27 10:05:02;;;;;;;9.23;4.83;;;;;;;33.77;32.26;100765.06;126205;1099;104216;-79
2021/07/27 10:07:37;;;;;;;12.10;4.70;;;;;;;33.87;31.86;100773.59;126067;1099;104344;-79
2021/07/27 10:10:12;;;;;;;9.90;4.47;;;;;;;34.01;31.75;100760.92;126215;1099;104178;-79
2021/07/27 10:12:43;;;;;;;12.93;4.67;;;;;;;34.18;31.38;100759.06;126026;1098;109298;-78
2021/07/27 10:15:18;;;;;;;8.20;4.60;;;;;;;34.31;31.76;100757.38;125988;1099;104137;-78
2021/07/27 10:17:55;;;;;;;8.50;4.43;;;;;;;34.48;31.51;100761.81;126166;1098;104200;-78
2021/07/27 10:20:31;;;;;;;11.30;4.60;;;;;;;34.39;30.73;100774.16;125991;1099;104300;-79
2021/07/27 10:23:15;;;;;;;7.60;4.60;;;;;;;34.32;30.55;100769.16;125249;1102;104252;-79
2021/07/27 10:26:01;;;;;;;7.80;4.37;;;;;;;34.18;30.54;100770.81;125089;1102;104160;-79
2021/07/27 10:28:35;;;;;;;11.70;4.47;;;;;;;34.07;30.62;100759.69;125202;1102;104309;-78
2021/07/27 10:31:09;;;;;;;11.17;4.43;;;;;;;33.93;30.51;100765.94;125111;1102;104174;-78
2021/07/27 10:33:39;;;;;;;;;;;;;;;33.80;30.54;100768.50;125228;1102;104373;-79
2021/07/27 10:36:15;;;;;;;9.05;4.22;;;;;;;33.70;30.68;100763.64;125163;1102;104181;-78
2021/07/27 10:38:50;;;;;;;9.53;4.60;;;;;;;33.58;31.06;100766.11;125127;1102;104393;-79
2021/07/27 10:41:21;;;;;;;9.60;4.93;;;;;;;33.57;31.18;100756.17;125151;1102;104150;-77
2021/07/27 10:44:04;;;;;;;12.20;4.87;;;;;;;33.47;31.39;100757.65;125237;1102;104318;-78
2021/07/27 10:46:37;;;;;;;12.43;5.00;;;;;;;33.50;31.70;100754.76;125191;1102;104178;-79
2021/07/27 10:49:36;;;;;;;;;;;;;;;;;;;;;
2021/07/27 10:52:12;;;;;;;14.87;5.20;;;;;;;33.40;31.84;100748.97;125182;1102;104251;-79
2021/07/27 10:54:57;;;;;;;8.63;5.40;;;;;;;33.35;31.98;100745.64;125195;1099;105271;-79
2021/07/27 10:57:35;;;;;;;10.07;5.23;;;;;;;33.31;32.04;100750.34;126131;1099;102997;-77
2021/07/27 11:00:08;;;;;;;15.33;5.33;;;;;;;33.31;31.93;100746.76;126164;1099;104492;-78
2021/07/27 11:02:53;;;;;;;10.17;5.00;;;;;;;33.30;31.95;100747.71;125286;1099;104181;-80
2021/07/27 11:05:34;;;;;;;11.60;5.07;;;;;;;33.29;32.01;100744.12;125419;1099;104185;-80
2021/07/27 11:08:24;;;;;;;13.17;5.37;;;;;;;33.26;31.83;100747.02;125346;1099;104133;-78
2021/07/27 11:11:10;;;;;;;7.13;4.70;;;;;;;33.30;31.77;100750.43;125381;1099;105828;-79
2021/07/27 11:13:52;;;;;;;10.23;5.40;;;;;;;33.28;31.75;100734.20;125262;1099;104255;-80
2021/07/27 11:19:27;;;;;;;11.90;5.17;;;;;;;33.36;31.93;100719.31;126178;1099;104254;-78
2021/07/27 11:22:00;;;;;;;9.50;5.07;;;;;;;33.40;32.04;100715.47;125151;1099;104181;-79
2021/07/27 11:24:32;;;;;;;;;;;;;;;33.36;31.37;100712.02;125351;1099;119012;-79
2021/07/27 11:27:13;;;;;;;11.90;5.13;;;;;;;33.40;31.77;100710.89;126085;1099;104411;-79
2021/07/27 11:30:03;;;;;;;10.50;4.87;;;;;;;33.48;31.86;100702.30;126264;1099;104182;-78
2021/07/27 11:32:48;;;;;;;12.17;5.27;;;;;;;33.47;31.63;100711.41;125350;1099;104184;-78
2021/07/27 11:35:26;;;;;;;13.13;5.20;;;;;;;33.46;31.57;100706.95;125344;1099;104278;-78
2021/07/27 11:38:08;;;;;;;11.37;5.00;;;;;;;33.43;31.29;100709.85;126244;1099;104179;-79
2021/07/27 11:40:42;;;;;;;8.65;4.50;;;;;;;33.37;31.25;100707.48;126226;1099;104310;-79
2021/07/27 11:43:15;;;;;;;11.03;4.93;;;;;;;33.37;31.25;100718.36;125292;1099;104197;-78
2021/07/27 11:45:50;;;;;;;13.43;5.00;;;;;;;33.39;31.21;100703.69;126134;1099;104162;-78
2021/07/27 11:48:35;;;;;;;8.90;4.57;;;;;;;33.39;31.23;100710.98;126232;1099;104175;-77
2021/07/27 11:51:13;;;;;;;14.63;4.87;;;;;;;33.43;31.41;100709.85;126235;1098;104217;-79
2021/07/27 11:54:01;;;;;;;11.87;5.17;;;;;;;33.40;31.31;100713.61;126143;1099;104133;-80
2021/07/27 11:56:48;;;;;;;12.20;4.80;;;;;;;33.38;31.38;100712.83;125334;1102;104159;-78